Time;durP1;ratioP1;P1;durP2;ratioP2;P2;SDS_P1;SDS_P2;PMS_P1;PMS_P2;Temp;Humidity;BMP_temperature;BMP_pressure;BME280_temperature;BME280_humidity;BME280_pressure;Samples;Min_cycle;Max_cycle;Signal;HPM_P1;HPM_P2
2023/12/17 00:00:40;;;;;;;19.33;8.40;;;9.50;99.90;;;;;;5098030;28;20105;-75
2023/12/17 00:03:06;;;;;;;23.03;8.23;;;9.40;99.90;;;;;;5097229;28;20044;-75
2023/12/17 00:05:31;;;;;;;22.03;8.77;;;9.40;99.90;;;;;;5097364;28;20499;-75
2023/12/17 00:07:57;;;;;;;25.83;8.80;;;9.40;99.90;;;;;;5097269;28;20048;-75
2023/12/17 00:10:23;;;;;;;20.57;8.20;;;9.40;99.90;;;;;;5097154;28;20357;-75
2023/12/17 00:12:49;;;;;;;20.87;8.23;;;9.40;99.90;;;;;;5096226;28;20048;-75
2023/12/17 00:15:14;;;;;;;18.90;8.47;;;9.50;99.90;;;;;;5112963;28;20055;-75
2023/12/17 00:17:40;;;;;;;14.60;8.07;;;9.40;99.90;;;;;;5097060;28;20282;-75
2023/12/17 00:20:06;;;;;;;15.13;7.47;;;9.40;99.90;;;;;;5097642;28;20044;-75
2023/12/17 00:22:32;;;;;;;19.73;8.00;;;9.40;99.90;;;;;;5097882;28;20067;-75
2023/12/17 00:24:58;;;;;;;17.90;8.57;;;9.50;99.90;;;;;;5096612;28;20757;-75
2023/12/17 00:27:24;;;;;;;23.90;7.87;;;9.50;99.90;;;;;;5097015;28;20113;-74
2023/12/17 00:29:50;;;;;;;21.17;7.57;;;9.40;99.90;;;;;;5097202;28;20047;-75
2023/12/17 00:32:15;;;;;;;17.63;7.47;;;9.40;99.90;;;;;;5097471;28;20286;-75
2023/12/17 00:34:41;;;;;;;18.60;7.47;;;9.40;99.90;;;;;;5096570;28;20067;-75
2023/12/17 00:37:07;;;;;;;18.70;8.37;;;9.50;99.90;;;;;;5096448;28;20051;-74
2023/12/17 00:39:32;;;;;;;14.70;7.03;;;9.50;99.90;;;;;;5097276;28;20044;-75
2023/12/17 00:41:58;;;;;;;18.27;7.27;;;9.40;99.90;;;;;;5097085;28;20159;-75
2023/12/17 00:44:24;;;;;;;21.87;8.07;;;9.40;99.90;;;;;;5096192;28;20047;-75
2023/12/17 00:46:49;;;;;;;16.43;7.30;;;9.50;99.90;;;;;;5096698;28;20054;-75
2023/12/17 00:49:15;;;;;;;14.03;7.23;;;9.50;99.90;;;;;;5095803;28;20075;-75
2023/12/17 00:51:41;;;;;;;14.07;7.27;;;9.50;99.90;;;;;;5096014;28;20044;-75
2023/12/17 00:54:06;;;;;;;15.97;7.50;;;9.50;99.90;;;;;;5095890;28;20475;-75
2023/12/17 00:56:32;;;;;;;15.57;7.47;;;9.50;99.90;;;;;;5096169;28;20089;-75
2023/12/17 00:58:58;;;;;;;16.07;6.97;;;9.50;99.90;;;;;;5094829;28;20100;-75
2023/12/17 01:01:24;;;;;;;17.67;7.77;;;9.50;99.90;;;;;;5095192;28;20032;-75
2023/12/17 01:03:50;;;;;;;15.70;8.07;;;9.50;99.90;;;;;;5096413;28;20048;-75
2023/12/17 01:06:16;;;;;;;15.83;6.57;;;9.50;99.90;;;;;;5096550;28;20415;-75
2023/12/17 01:08:42;;;;;;;18.57;7.30;;;9.50;99.90;;;;;;5096862;28;20399;-75
2023/12/17 01:11:07;;;;;;;18.53;7.07;;;9.50;99.90;;;;;;5096097;28;20123;-75
2023/12/17 01:13:33;;;;;;;14.13;6.90;;;9.50;99.90;;;;;;5096170;28;20040;-75
2023/12/17 01:15:59;;;;;;;13.40;6.60;;;9.50;99.90;;;;;;5096071;28;20051;-75
2023/12/17 01:18:24;;;;;;;19.17;6.50;;;9.50;99.90;;;;;;5094626;28;20129;-75
2023/12/17 01:20:50;;;;;;;14.43;6.70;;;9.50;99.90;;;;;;5096119;28;20040;-75
2023/12/17 01:23:16;;;;;;;17.00;6.03;;;9.50;99.90;;;;;;5095935;28;20048;-75
2023/12/17 01:25:41;;;;;;;17.07;6.93;;;9.50;99.90;;;;;;5078524;28;20040;-75
2023/12/17 01:28:07;;;;;;;18.30;6.83;;;9.50;99.90;;;;;;5094900;28;20050;-75
2023/12/17 01:30:33;;;;;;;17.93;6.77;;;9.50;99.90;;;;;;5096010;28;20051;-75
2023/12/17 01:32:58;;;;;;;18.20;6.63;;;9.50;99.90;;;;;;5094614;28;20058;-75
2023/12/17 01:35:24;;;;;;;15.73;6.63;;;9.50;99.90;;;;;;5078045;28;20074;-75
2023/12/17 01:37:50;;;;;;;14.47;6.37;;;9.50;99.90;;;;;;5095158;28;20473;-74
2023/12/17 01:40:15;;;;;;;21.33;6.87;;;9.50;99.90;;;;;;5078249;28;20208;-75
2023/12/17 01:42:41;;;;;;;16.27;7.10;;;9.50;99.90;;;;;;5094637;28;20059;-75
2023/12/17 01:45:07;;;;;;;16.87;6.40;;;9.50;99.90;;;;;;5095881;28;20096;-75
2023/12/17 01:47:33;;;;;;;17.20;6.33;;;9.50;99.90;;;;;;5077712;28;20063;-75
2023/12/17 01:49:59;;;;;;;15.83;6.33;;;9.60;99.90;;;;;;5095363;28;20044;-75
2023/12/17 01:52:25;;;;;;;18.43;6.67;;;9.60;99.90;;;;;;5095403;28;20181;-75
2023/12/17 01:54:50;;;;;;;15.97;6.43;;;9.50;99.90;;;;;;5095934;28;20093;-75
2023/12/17 01:57:16;;;;;;;18.27;6.77;;;9.50;99.90;;;;;;5095288;28;20327;-75
2023/12/17 01:59:42;;;;;;;17.97;6.70;;;9.50;99.90;;;;;;5095029;28;20067;-75
2023/12/17 02:02:10;;;;;;;20.13;6.73;;;9.50;99.90;;;;;;5095187;28;20044;-75
2023/12/17 02:04:37;;;;;;;16.80;6.30;;;9.60;99.90;;;;;;5094901;28;20400;-75
2023/12/17 02:07:02;;;;;;;14.70;6.47;;;9.50;99.90;;;;;;5095143;28;20335;-75
2023/12/17 02:09:28;;;;;;;17.80;6.93;;;9.50;99.90;;;;;;5094844;28;20303;-75
2023/12/17 02:11:54;;;;;;;14.27;6.40;;;9.50;99.90;;;;;;5094294;28;20044;-75
2023/12/17 02:14:20;;;;;;;18.47;6.50;;;9.50;99.90;;;;;;5094944;28;20431;-75
2023/12/17 02:16:45;;;;;;;16.17;5.90;;;9.60;99.90;;;;;;5095459;28;20040;-75
2023/12/17 02:19:11;;;;;;;15.03;6.00;;;9.60;99.90;;;;;;5095431;28;20376;-75
2023/12/17 02:21:37;;;;;;;17.10;6.40;;;9.60;99.90;;;;;;5094942;28;20062;-75
2023/12/17 02:24:03;;;;;;;12.13;6.03;;;9.60;99.90;;;;;;5093597;28;20357;-75
2023/12/17 02:26:29;;;;;;;16.17;6.13;;;9.60;99.90;;;;;;5095609;28;20117;-75
2023/12/17 02:28:54;;;;;;;14.27;6.70;;;9.60;99.90;;;;;;5094819;28;20282;-75
2023/12/17 02:31:20;;;;;;;16.67;6.53;;;9.60;99.90;;;;;;5094576;28;20040;-75
2023/12/17 02:33:46;;;;;;;16.57;7.47;;;9.60;99.90;;;;;;5094344;28;20044;-75
2023/12/17 02:36:12;;;;;;;14.30;6.30;;;9.60;99.90;;;;;;5093325;28;20063;-75
2023/12/17 02:38:38;;;;;;;19.80;7.00;;;9.60;99.90;;;;;;5094522;28;20281;-75
2023/12/17 02:41:04;;;;;;;13.07;6.50;;;9.50;99.90;;;;;;5093778;28;20131;-75
2023/12/17 02:43:29;;;;;;;12.70;6.63;;;9.50;99.90;;;;;;5094692;28;20586;-75
2023/12/17 02:45:55;;;;;;;21.40;8.00;;;9.50;99.90;;;;;;5093744;28;20123;-75
2023/12/17 02:48:21;;;;;;;16.60;7.37;;;9.50;99.90;;;;;;5094160;28;20036;-75
2023/12/17 02:50:46;;;;;;;17.43;6.80;;;9.50;99.90;;;;;;5093522;28;20438;-75
2023/12/17 02:53:12;;;;;;;18.60;7.93;;;9.50;99.90;;;;;;5093149;28;20039;-75
2023/12/17 02:55:38;;;;;;;17.57;7.80;;;9.50;99.90;;;;;;5093806;28;20503;-75
2023/12/17 02:58:04;;;;;;;13.83;7.53;;;9.50;99.90;;;;;;5093964;28;20055;-75
2023/12/17 03:00:29;;;;;;;16.57;6.80;;;9.50;99.90;;;;;;5094239;28;20097;-75
2023/12/17 03:02:56;;;;;;;18.43;7.80;;;9.40;99.90;;;;;;5076341;28;20657;-75
2023/12/17 03:05:22;;;;;;;19.43;8.20;;;9.40;99.90;;;;;;5094346;28;20051;-75
2023/12/17 03:07:47;;;;;;;15.33;6.90;;;9.40;99.90;;;;;;5093941;28;20278;-75
2023/12/17 03:10:13;;;;;;;17.93;7.77;;;9.40;99.90;;;;;;5094358;28;20040;-75
2023/12/17 03:12:39;;;;;;;18.37;8.13;;;9.40;99.90;;;;;;5092805;28;20051;-75
2023/12/17 03:15:05;;;;;;;17.60;7.67;;;9.40;99.90;;;;;;5092884;28;20040;-75
2023/12/17 03:17:31;;;;;;;23.03;9.00;;;9.40;99.90;;;;;;5094404;28;20063;-75
2023/12/17 03:19:57;;;;;;;20.80;7.70;;;9.40;99.90;;;;;;5094110;28;20399;-75
2023/12/17 03:22:23;;;;;;;18.57;8.90;;;9.40;99.90;;;;;;5093643;28;20056;-75
2023/12/17 03:24:48;;;;;;;17.30;8.27;;;9.40;99.90;;;;;;5092618;28;20051;-75
2023/12/17 03:27:14;;;;;;;22.00;7.67;;;9.40;99.90;;;;;;5093723;28;20050;-75
2023/12/17 03:29:40;;;;;;;19.77;8.30;;;9.40;99.90;;;;;;5092914;28;20087;-75
2023/12/17 03:32:05;;;;;;;20.97;7.57;;;9.40;99.90;;;;;;5092492;28;20073;-75
2023/12/17 03:34:31;;;;;;;20.37;8.30;;;9.40;99.90;;;;;;5092659;28;20055;-75
2023/12/17 03:36:57;;;;;;;21.80;8.40;;;9.40;99.90;;;;;;5093584;28;20130;-75
2023/12/17 03:39:22;;;;;;;19.57;8.40;;;9.40;99.90;;;;;;5093771;28;20083;-75
2023/12/17 03:41:48;;;;;;;18.47;8.10;;;9.40;99.90;;;;;;5092847;28;20135;-75
2023/12/17 03:44:14;;;;;;;18.10;8.00;;;9.40;99.90;;;;;;5093190;28;20103;-76
2023/12/17 03:46:40;;;;;;;17.53;7.83;;;9.40;99.90;;;;;;5092367;28;20088;-75
2023/12/17 03:49:05;;;;;;;16.73;7.67;;;9.40;99.90;;;;;;5092488;28;20361;-75
2023/12/17 03:51:31;;;;;;;20.30;8.77;;;9.50;99.90;;;;;;5093434;28;20039;-76
2023/12/17 03:53:57;;;;;;;15.53;8.20;;;9.40;99.90;;;;;;5092097;28;20480;-75
2023/12/17 03:56:23;;;;;;;18.87;9.80;;;9.40;99.90;;;;;;5093724;28;20089;-76
2023/12/17 03:58:49;;;;;;;20.33;9.47;;;9.40;99.90;;;;;;5093139;28;20064;-75
2023/12/17 04:01:14;;;;;;;19.83;9.40;;;9.40;99.90;;;;;;5092453;28;20282;-75
2023/12/17 04:03:40;;;;;;;26.20;9.50;;;9.40;99.90;;;;;;5093333;28;20558;-75
2023/12/17 04:06:07;;;;;;;23.60;8.73;;;9.40;99.90;;;;;;5093857;28;20044;-75
2023/12/17 04:08:33;;;;;;;17.07;8.10;;;9.40;99.90;;;;;;5093292;28;20479;-75
2023/12/17 04:10:59;;;;;;;16.77;8.67;;;9.40;99.90;;;;;;5093290;28;20298;-75
2023/12/17 04:13:25;;;;;;;19.10;8.90;;;9.40;99.90;;;;;;5093282;28;20052;-75
2023/12/17 04:15:50;;;;;;;19.87;9.87;;;9.40;99.90;;;;;;5093262;28;20044;-75
2023/12/17 04:18:16;;;;;;;23.00;9.80;;;9.40;99.90;;;;;;5093245;28;20625;-76
2023/12/17 04:20:42;;;;;;;20.90;9.03;;;9.40;99.90;;;;;;5093190;28;20036;-75
2023/12/17 04:23:08;;;;;;;27.37;10.33;;;9.30;99.90;;;;;;5092248;28;20105;-75
2023/12/17 04:25:33;;;;;;;20.80;9.80;;;9.30;99.90;;;;;;5093139;28;20484;-76
2023/12/17 04:27:59;;;;;;;28.70;9.53;;;9.20;99.90;;;;;;5093428;28;20076;-75
2023/12/17 04:30:25;;;;;;;21.27;9.93;;;9.30;99.90;;;;;;5093105;28;20051;-75
2023/12/17 04:32:50;;;;;;;17.93;9.13;;;9.20;99.90;;;;;;5093627;28;20051;-76
2023/12/17 04:35:16;;;;;;;18.70;10.70;;;9.20;99.90;;;;;;5096645;28;20044;-76
2023/12/17 04:37:42;;;;;;;19.20;9.57;;;9.20;99.90;;;;;;5096745;28;20066;-75
2023/12/17 04:40:09;;;;;;;18.80;8.87;;;9.20;99.90;;;;;;5096010;28;20047;-75
2023/12/17 04:42:35;;;;;;;21.00;9.17;;;9.20;99.90;;;;;;5096008;28;20388;-76
2023/12/17 04:45:02;;;;;;;20.60;9.43;;;9.30;99.90;;;;;;5097255;28;20366;-76
2023/12/17 04:47:28;;;;;;;19.77;9.60;;;9.30;99.90;;;;;;5095621;28;20093;-75
2023/12/17 04:49:54;;;;;;;20.50;9.30;;;9.30;99.90;;;;;;5096536;28;20290;-76
2023/12/17 04:52:19;;;;;;;18.60;9.57;;;9.30;99.90;;;;;;5096479;28;20484;-75
2023/12/17 04:54:45;;;;;;;19.97;9.60;;;9.30;99.90;;;;;;5096421;28;20096;-75
2023/12/17 04:57:11;;;;;;;19.50;9.00;;;9.20;99.90;;;;;;5096443;28;20051;-76
2023/12/17 04:59:37;;;;;;;17.73;8.57;;;9.20;99.90;;;;;;5096427;28;20131;-76
2023/12/17 05:02:02;;;;;;;22.40;9.20;;;9.20;99.90;;;;;;5095471;28;20454;-75
2023/12/17 05:04:28;;;;;;;21.80;10.20;;;9.20;99.90;;;;;;5095119;28;20055;-76
2023/12/17 05:06:54;;;;;;;20.77;9.53;;;9.20;99.90;;;;;;5096243;28;20423;-76
2023/12/17 05:09:19;;;;;;;25.70;10.23;;;9.20;99.90;;;;;;5095142;28;20044;-75
2023/12/17 05:11:45;;;;;;;22.37;9.30;;;9.30;99.90;;;;;;5097031;28;20044;-75
2023/12/17 05:14:11;;;;;;;23.47;8.97;;;9.20;99.90;;;;;;5096289;28;20589;-75
2023/12/17 05:16:36;;;;;;;21.10;10.63;;;9.30;99.90;;;;;;5095820;28;20079;-75
2023/12/17 05:19:02;;;;;;;19.33;10.33;;;9.30;99.90;;;;;;5096537;28;20121;-75
2023/12/17 05:21:28;;;;;;;19.27;9.10;;;9.30;99.90;;;;;;5096738;28;20150;-76
2023/12/17 05:23:53;;;;;;;21.30;10.67;;;9.20;99.90;;;;;;5095735;28;20346;-75
2023/12/17 05:26:19;;;;;;;22.43;9.40;;;9.20;99.90;;;;;;5094861;28;20040;-76
2023/12/17 05:28:45;;;;;;;21.20;8.70;;;9.20;99.90;;;;;;5095793;28;20040;-76
2023/12/17 05:31:11;;;;;;;17.47;10.30;;;9.20;99.90;;;;;;5095629;28;20093;-76
2023/12/17 05:33:36;;;;;;;23.93;10.17;;;9.20;99.90;;;;;;5095718;28;20040;-75
2023/12/17 05:36:04;;;;;;;17.90;9.70;;;9.20;99.90;;;;;;5095674;28;20469;-75
2023/12/17 05:38:30;;;;;;;17.50;9.77;;;9.20;99.90;;;;;;5095472;28;20123;-75
2023/12/17 05:40:56;;;;;;;20.10;8.97;;;9.20;99.90;;;;;;5095659;28;20358;-76
2023/12/17 05:43:22;;;;;;;18.63;9.50;;;9.20;99.90;;;;;;5094556;28;20453;-76
2023/12/17 05:45:47;;;;;;;18.33;8.83;;;9.20;99.90;;;;;;5094259;28;20044;-75
2023/12/17 05:48:14;;;;;;;21.70;9.47;;;9.20;99.90;;;;;;5095466;28;20530;-75
2023/12/17 05:50:40;;;;;;;20.47;9.60;;;9.20;99.90;;;;;;5095326;28;20051;-76
2023/12/17 05:53:06;;;;;;;23.23;10.63;;;9.30;99.90;;;;;;5095345;28;20747;-75
2023/12/17 05:55:32;;;;;;;22.97;10.43;;;9.30;99.90;;;;;;5095278;28;20296;-76
2023/12/17 05:57:57;;;;;;;16.80;9.30;;;9.20;99.90;;;;;;5095217;28;20436;-76
2023/12/17 06:00:23;;;;;;;21.00;10.13;;;9.30;99.90;;;;;;5095489;28;20048;-75
2023/12/17 06:02:49;;;;;;;21.37;10.03;;;9.30;99.90;;;;;;5095691;28;20091;-75
2023/12/17 06:05:14;;;;;;;22.10;9.90;;;9.30;99.90;;;;;;5095043;28;20043;-75
2023/12/17 06:07:40;;;;;;;22.60;10.33;;;9.30;99.90;;;;;;5095047;28;20108;-75
2023/12/17 06:10:07;;;;;;;22.20;10.00;;;9.30;99.90;;;;;;5094954;28;20040;-75
2023/12/17 06:12:32;;;;;;;20.30;10.83;;;9.30;99.90;;;;;;5093715;28;20138;-75
2023/12/17 06:14:58;;;;;;;20.80;10.57;;;9.30;99.90;;;;;;5094890;28;20274;-75
2023/12/17 06:17:24;;;;;;;24.70;11.47;;;9.30;99.90;;;;;;5094892;28;20051;-75
2023/12/17 06:19:49;;;;;;;18.20;9.83;;;9.30;99.90;;;;;;5094251;28;20434;-75
2023/12/17 06:22:16;;;;;;;22.53;11.03;;;9.30;99.90;;;;;;5094793;28;20044;-75
2023/12/17 06:24:42;;;;;;;18.77;9.20;;;9.30;99.90;;;;;;5094778;28;20484;-76
2023/12/17 06:27:15;;;;;;;21.03;10.17;;;9.30;99.90;;;;;;5076771;28;20297;-75
2023/12/17 06:29:41;;;;;;;17.53;10.20;;;9.30;99.90;;;;;;5093515;28;20083;-75
2023/12/17 06:32:07;;;;;;;18.43;9.30;;;9.30;99.90;;;;;;5094462;28;20345;-75
2023/12/17 06:34:34;;;;;;;20.17;9.43;;;9.30;99.90;;;;;;5094907;28;20055;-76
2023/12/17 06:37:00;;;;;;;18.90;9.07;;;9.30;99.90;;;;;;5094514;28;20274;-76
2023/12/17 06:39:26;;;;;;;17.90;9.00;;;9.30;99.90;;;;;;5093793;28;20286;-75
2023/12/17 06:41:52;;;;;;;17.73;9.17;;;9.30;99.90;;;;;;5093166;28;20340;-75
2023/12/17 06:44:18;;;;;;;22.83;10.47;;;9.30;99.90;;;;;;5093357;28;20044;-75
2023/12/17 06:46:43;;;;;;;26.67;11.47;;;9.30;99.90;;;;;;5094081;28;20102;-75
2023/12/17 06:49:10;;;;;;;22.23;12.20;;;9.30;99.90;;;;;;5095109;28;20060;-75
2023/12/17 06:51:39;;;;;;;19.30;11.37;;;9.20;99.90;;;;;;5094186;28;20068;-76
2023/12/17 06:54:06;;;;;;;25.47;12.63;;;9.20;99.90;;;;;;5095312;28;20282;-76
2023/12/17 06:56:31;;;;;;;24.37;12.90;;;9.30;99.90;;;;;;5093890;28;20331;-76
2023/12/17 06:58:57;;;;;;;23.27;12.73;;;9.20;99.90;;;;;;5092867;28;20377;-75
2023/12/17 07:01:23;;;;;;;21.40;11.87;;;9.30;99.90;;;;;;5094613;28;20052;-76
2023/12/17 07:03:52;;;;;;;25.13;11.03;;;9.30;99.90;;;;;;5094034;28;20055;-76
2023/12/17 07:06:17;;;;;;;21.80;12.23;;;9.30;99.90;;;;;;5093712;28;20354;-76
2023/12/17 07:08:43;;;;;;;26.13;12.40;;;9.30;99.90;;;;;;5094287;28;20047;-76
2023/12/17 07:11:10;;;;;;;30.20;12.00;;;9.30;99.90;;;;;;5094451;28;20430;-76
2023/12/17 07:13:36;;;;;;;27.37;12.20;;;9.30;99.90;;;;;;5092940;28;20150;-76
2023/12/17 07:16:03;;;;;;;30.37;13.30;;;9.30;99.90;;;;;;5093147;28;20809;-76
2023/12/17 07:18:28;;;;;;;27.13;12.93;;;9.30;99.90;;;;;;5092733;28;20259;-76
2023/12/17 07:20:54;;;;;;;25.90;12.60;;;9.30;99.90;;;;;;5092487;28;20377;-76
2023/12/17 07:23:24;;;;;;;29.07;15.27;;;9.30;99.90;;;;;;5092858;28;20044;-76
2023/12/17 07:25:50;;;;;;;25.80;14.43;;;9.30;99.90;;;;;;5093719;28;20282;-76
2023/12/17 07:28:15;;;;;;;23.70;14.07;;;9.30;99.90;;;;;;5093821;28;20274;-76
2023/12/17 07:30:41;;;;;;;27.30;13.17;;;9.30;99.90;;;;;;5093494;28;20039;-76
2023/12/17 07:33:08;;;;;;;22.10;11.07;;;9.30;99.90;;;;;;5094501;28;20044;-75
2023/12/17 07:35:34;;;;;;;24.77;11.37;;;9.30;99.90;;;;;;5093527;28;20048;-76
2023/12/17 07:38:00;;;;;;;23.47;10.97;;;9.30;99.90;;;;;;5093537;28;20626;-76
2023/12/17 07:40:26;;;;;;;21.20;10.63;;;9.30;99.90;;;;;;5092958;28;20044;-75
2023/12/17 07:42:52;;;;;;;25.70;11.20;;;9.30;99.90;;;;;;5092828;28;20488;-76
2023/12/17 07:45:18;;;;;;;23.23;11.03;;;9.30;99.90;;;;;;5092792;28;20278;-76
2023/12/17 07:47:44;;;;;;;19.83;11.03;;;9.30;99.90;;;;;;5093505;28;20044;-76
2023/12/17 07:50:10;;;;;;;21.23;10.83;;;9.30;99.90;;;;;;5093161;28;20059;-75
2023/12/17 07:52:36;;;;;;;23.07;12.57;;;9.30;99.90;;;;;;5094329;28;20274;-75
2023/12/17 07:55:02;;;;;;;24.07;11.13;;;9.20;99.90;;;;;;5092336;28;20479;-76
2023/12/17 07:57:28;;;;;;;20.43;11.67;;;9.30;99.90;;;;;;5092746;28;20480;-75
2023/12/17 07:59:54;;;;;;;24.50;11.47;;;9.20;99.90;;;;;;5092020;28;20285;-75
2023/12/17 08:02:19;;;;;;;20.23;11.00;;;9.30;99.90;;;;;;5093404;28;20066;-75
2023/12/17 08:04:45;;;;;;;24.43;11.73;;;9.20;99.90;;;;;;5075539;28;20052;-76
2023/12/17 08:07:11;;;;;;;21.73;11.23;;;9.20;99.90;;;;;;5094153;28;20076;-75
2023/12/17 08:09:37;;;;;;;20.10;10.73;;;9.20;99.90;;;;;;5095016;28;20785;-74
2023/12/17 08:12:03;;;;;;;24.70;12.00;;;9.20;99.90;;;;;;5096758;28;20052;-74
2023/12/17 08:14:29;;;;;;;19.03;10.37;;;9.20;99.90;;;;;;5097207;28;20055;-75
2023/12/17 08:16:55;;;;;;;23.43;11.47;;;9.20;99.90;;;;;;5097285;28;20285;-75
2023/12/17 08:19:20;;;;;;;25.33;12.10;;;9.20;99.90;;;;;;5097110;28;20282;-72
2023/12/17 08:21:46;;;;;;;29.80;12.53;;;9.20;99.90;;;;;;5097683;28;20043;-76
2023/12/17 08:24:12;;;;;;;23.50;12.13;;;9.20;99.90;;;;;;5096971;28;20422;-76
2023/12/17 08:26:38;;;;;;;24.20;11.93;;;9.20;99.90;;;;;;5096951;28;20051;-75
2023/12/17 08:29:03;;;;;;;27.23;13.90;;;9.20;99.90;;;;;;5096560;28;20036;-77
2023/12/17 08:31:29;;;;;;;27.67;14.70;;;9.20;99.90;;;;;;5096824;28;20043;-76
2023/12/17 08:33:55;;;;;;;30.67;14.30;;;9.20;99.90;;;;;;5096927;28;20051;-77
2023/12/17 08:36:22;;;;;;;33.50;14.93;;;9.20;99.90;;;;;;5098516;28;20278;-75
2023/12/17 08:38:48;;;;;;;35.43;16.03;;;9.20;99.90;;;;;;5095734;28;20052;-74
2023/12/17 08:41:14;;;;;;;30.87;15.57;;;9.20;99.90;;;;;;5096496;28;20374;-74
2023/12/17 08:43:40;;;;;;;29.83;14.83;;;9.20;99.90;;;;;;5097252;28;20052;-74
2023/12/17 08:46:06;;;;;;;32.03;13.73;;;9.30;99.90;;;;;;5096616;28;20380;-74
2023/12/17 08:48:32;;;;;;;33.80;13.93;;;9.30;99.90;;;;;;5096627;28;20097;-75
2023/12/17 08:50:57;;;;;;;32.63;14.50;;;9.20;99.90;;;;;;5096542;28;20293;-75
2023/12/17 08:53:26;;;;;;;28.13;12.67;;;9.30;99.90;;;;;;5095325;28;20551;-75
2023/12/17 08:55:52;;;;;;;33.10;13.67;;;9.20;99.90;;;;;;5096302;28;20040;-75
2023/12/17 08:58:18;;;;;;;31.37;11.77;;;9.20;99.90;;;;;;5097112;28;20270;-74
2023/12/17 09:00:43;;;;;;;29.07;11.70;;;9.20;99.90;;;;;;5095975;28;20293;-74
2023/12/17 09:03:09;;;;;;;30.13;12.17;;;9.30;99.90;;;;;;5096028;28;20151;-75
2023/12/17 09:05:38;;;;;;;27.83;11.47;;;9.30;99.90;;;;;;5096370;28;20078;-75
2023/12/17 09:08:03;;;;;;;23.40;9.83;;;9.30;99.90;;;;;;5095956;28;20052;-74
2023/12/17 09:10:29;;;;;;;26.03;11.30;;;9.30;99.90;;;;;;5096167;28;20800;-76
2023/12/17 09:12:55;;;;;;;31.87;12.40;;;9.30;99.90;;;;;;5094973;28;20055;-74
2023/12/17 09:15:21;;;;;;;30.03;11.87;;;9.30;99.90;;;;;;5096142;28;20123;-75
2023/12/17 09:17:47;;;;;;;31.37;11.47;;;9.30;99.90;;;;;;5096076;28;20056;-75
2023/12/17 09:20:15;;;;;;;27.73;12.13;;;9.30;99.90;;;;;;5096327;28;20273;-75
2023/12/17 09:22:41;;;;;;;27.13;10.73;;;9.30;99.90;;;;;;5096851;28;20426;-75
2023/12/17 09:25:08;;;;;;;24.00;11.53;;;9.40;99.90;;;;;;5095876;28;20369;-75
2023/12/17 09:27:33;;;;;;;26.23;10.83;;;9.40;99.90;;;;;;5095667;28;20481;-75
2023/12/17 09:29:59;;;;;;;35.40;10.50;;;9.40;99.90;;;;;;5095699;28;20297;-76
2023/12/17 09:32:26;;;;;;;25.00;9.70;;;9.30;99.90;;;;;;5095824;28;20051;-76
2023/12/17 09:34:51;;;;;;;30.03;10.63;;;9.40;99.90;;;;;;5097862;28;20054;-75
2023/12/17 09:37:17;;;;;;;31.47;12.37;;;9.40;99.90;;;;;;5095777;28;20357;-77
2023/12/17 09:39:43;;;;;;;33.07;9.97;;;9.40;99.90;;;;;;5095723;28;20130;-76
2023/12/17 09:42:09;;;;;;;20.83;9.50;;;9.40;99.90;;;;;;5095444;28;20048;-76
2023/12/17 09:44:35;;;;;;;31.20;11.10;;;9.40;99.90;;;;;;5095497;28;20598;-76
2023/12/17 09:47:01;;;;;;;34.57;11.97;;;9.40;99.90;;;;;;5095620;28;20048;-75
2023/12/17 09:49:26;;;;;;;27.73;10.37;;;9.40;99.90;;;;;;5095363;28;20079;-76
2023/12/17 09:52:01;;;;;;;32.93;10.97;;;9.40;99.90;;;;;;5095873;28;20067;-76
2023/12/17 09:54:26;;;;;;;23.85;12.13;;;9.40;99.90;;;;;;5095122;28;20081;-75
2023/12/17 09:56:53;;;;;;;29.83;12.97;;;9.40;99.90;;;;;;5095207;28;20485;-75
2023/12/17 09:59:19;;;;;;;33.13;14.70;;;9.40;99.90;;;;;;5095020;28;20177;-75
2023/12/17 10:01:45;;;;;;;30.87;15.57;;;9.40;99.90;;;;;;5095231;28;20286;-75
2023/12/17 10:04:11;;;;;;;27.50;16.23;;;9.40;99.90;;;;;;5095134;28;20265;-73
2023/12/17 10:06:37;;;;;;;31.87;17.87;;;9.30;99.90;;;;;;5094352;28;20709;-78
2023/12/17 10:09:05;;;;;;;36.17;19.03;;;9.30;99.90;;;;;;5093924;28;20503;-78
2023/12/17 10:11:32;;;;;;;32.73;19.20;;;9.40;99.90;;;;;;5095224;28;20044;-78
2023/12/17 10:14:00;;;;;;;33.97;20.20;;;9.40;99.90;;;;;;5094946;28;20278;-78
2023/12/17 10:16:26;;;;;;;37.03;20.37;;;9.40;99.90;;;;;;5094917;28;20308;-78
2023/12/17 10:18:52;;;;;;;33.57;20.03;;;9.40;99.90;;;;;;5095654;28;20354;-78
2023/12/17 10:21:18;;;;;;;37.40;20.50;;;9.40;99.90;;;;;;5094756;28;20813;-78
2023/12/17 10:23:48;;;;;;;34.57;19.77;;;9.40;99.90;;;;;;5094804;28;20048;-78
2023/12/17 10:26:14;;;;;;;39.43;21.67;;;9.40;99.90;;;;;;5093734;28;20361;-79
2023/12/17 10:28:46;;;;;;;31.70;17.40;;;9.40;99.90;;;;;;5094398;28;20316;-78
2023/12/17 10:31:15;;;;;;;30.00;18.97;;;9.40;99.90;;;;;;5093879;28;20117;-80
2023/12/17 10:33:54;;;;;;;33.43;19.57;;;9.40;99.90;;;;;;5093548;28;20286;-79
2023/12/17 10:36:20;;;;;;;30.70;17.33;;;9.40;99.90;;;;;;5095326;28;20282;-78
2023/12/17 10:38:48;;;;;;;34.13;19.23;;;9.40;99.90;;;;;;5077435;28;20290;-83
2023/12/17 10:41:16;;;;;;;30.93;17.20;;;9.40;99.90;;;;;;5096109;28;20274;-82
2023/12/17 10:43:43;;;;;;;29.97;17.80;;;9.40;99.90;;;;;;5094317;28;20611;-81
2023/12/17 10:46:13;;;;;;;33.50;19.40;;;9.40;99.90;;;;;;5093366;28;20282;-82
2023/12/17 10:48:39;;;;;;;27.00;19.30;;;9.40;99.90;;;;;;5093229;28;20286;-83
2023/12/17 10:51:05;;;;;;;33.07;19.60;;;9.40;99.90;;;;;;5076149;28;20298;-84
2023/12/17 10:53:31;;;;;;;31.17;20.87;;;9.50;99.90;;;;;;5076239;28;20286;-81
2023/12/17 10:55:57;;;;;;;31.90;19.33;;;9.40;99.90;;;;;;5094708;28;20286;-83
2023/12/17 10:58:24;;;;;;;33.83;20.47;;;9.50;99.90;;;;;;5094166;28;20131;-82
2023/12/17 11:00:50;;;;;;;37.07;20.00;;;9.40;99.90;;;;;;5095323;28;20787;-83
2023/12/17 11:03:17;;;;;;;28.37;18.73;;;9.40;99.90;;;;;;5093477;28;20286;-82
2023/12/17 11:05:56;;;;;;;30.97;19.13;;;9.40;99.90;;;;;;5094654;28;20277;-81
2023/12/17 11:08:24;;;;;;;31.37;19.33;;;9.40;99.90;;;;;;5093477;28;20281;-82
2023/12/17 11:10:50;;;;;;;34.70;19.30;;;9.50;99.90;;;;;;5093990;28;20286;-85
2023/12/17 11:13:19;;;;;;;38.97;21.87;;;9.50;99.90;;;;;;5093534;28;20277;-83
2023/12/17 11:15:45;;;;;;;33.57;20.90;;;9.40;99.90;;;;;;5093965;28;20051;-85
2023/12/17 11:18:11;;;;;;;29.20;21.37;;;9.50;99.90;;;;;;5094477;28;20278;-85
2023/12/17 11:20:45;;;;;;;32.57;21.97;;;9.40;99.90;;;;;;5092935;28;20123;-83
2023/12/17 11:23:10;;;;;;;31.57;20.50;;;9.40;99.90;;;;;;5092621;28;20058;-83
2023/12/17 11:25:36;;;;;;;28.57;19.53;;;9.40;99.90;;;;;;5094400;28;20353;-79
2023/12/17 11:28:03;;;;;;;30.60;19.80;;;9.50;99.90;;;;;;5093776;28;20516;-78
2023/12/17 11:30:30;;;;;;;34.00;21.13;;;9.50;99.90;;;;;;5093722;28;20063;-78
2023/12/17 11:32:57;;;;;;;32.07;19.63;;;9.50;99.90;;;;;;5093717;28;20661;-77
2023/12/17 11:35:24;;;;;;;32.80;20.30;;;9.50;99.90;;;;;;5092725;28;20332;-78
2023/12/17 11:37:50;;;;;;;34.97;19.77;;;9.50;99.90;;;;;;5093669;28;20318;-77
2023/12/17 11:40:16;;;;;;;26.37;19.77;;;9.50;99.90;;;;;;5093970;28;20274;-79
2023/12/17 11:43:00;;;;;;;25.43;17.70;;;9.50;99.90;;;;;;5094641;28;20741;-82
2023/12/17 11:45:35;;;;;;;33.40;18.93;;;9.50;99.90;;;;;;5098751;28;20047;-76
2023/12/17 11:48:15;;;;;;;30.20;18.05;;;9.50;99.90;;;;;;5097868;28;20278;-75
2023/12/17 11:50:46;;;;;;;32.80;21.27;;;9.50;99.90;;;;;;5098039;28;20053;-75
2023/12/17 11:53:17;;;;;;;25.50;17.53;;;9.50;99.90;;;;;;5097674;28;20282;-75
2023/12/17 11:55:44;;;;;;;30.33;17.63;;;9.50;99.90;;;;;;5097175;28;20270;-75
2023/12/17 11:58:10;;;;;;;27.23;18.10;;;9.50;99.90;;;;;;5097619;28;20282;-75
2023/12/17 12:00:36;;;;;;;28.97;18.97;;;9.50;99.90;;;;;;5097816;28;20298;-75
2023/12/17 12:03:02;;;;;;;26.00;18.63;;;9.50;99.90;;;;;;5097473;28;20383;-75
2023/12/17 12:05:28;;;;;;;27.47;18.90;;;9.50;99.90;;;;;;5097351;28;20048;-78
2023/12/17 12:07:54;;;;;;;26.63;18.13;;;9.50;99.90;;;;;;5098013;28;20419;-76
2023/12/17 12:10:21;;;;;;;29.60;19.07;;;9.50;99.90;;;;;;5097262;28;20036;-79
2023/12/17 12:13:00;;;;;;;28.80;20.33;;;9.50;99.90;;;;;;5097356;28;20274;-81
2023/12/17 12:15:26;;;;;;;30.00;19.63;;;9.50;99.90;;;;;;5097636;28;20353;-80
2023/12/17 12:17:52;;;;;;;27.87;21.37;;;9.50;99.90;;;;;;5080250;28;20839;-80
2023/12/17 12:20:37;;;;;;;28.40;20.23;;;9.50;99.90;;;;;;5097107;28;20067;-80
2023/12/17 12:23:09;;;;;;;28.17;21.75;;;9.50;99.90;;;;;;5097248;28;20055;-79
2023/12/17 12:25:35;;;;;;;29.40;22.10;;;9.50;99.90;;;;;;5096517;28;20177;-80
2023/12/17 12:28:00;;;;;;;31.83;21.23;;;9.50;99.90;;;;;;5097026;28;20361;-77
2023/12/17 12:30:29;;;;;;;31.03;21.27;;;9.50;99.90;;;;;;5096674;28;20047;-80
2023/12/17 12:32:55;;;;;;;31.60;22.30;;;9.50;99.90;;;;;;5095718;28;20526;-82
2023/12/17 12:35:28;;;;;;;29.77;22.03;;;9.50;99.90;;;;;;5096988;28;20278;-83